Time;durP1;ratioP1;P1;durP2;ratioP2;P2;SDS_P1;SDS_P2;PMS_P1;PMS_P2;Temp;Humidity;BMP_temperature;BMP_pressure;BME280_temperature;BME280_humidity;BME280_pressure;Samples;Min_cycle;Max_cycle;Signal;HPM_P1;HPM_P2
2022/05/08 00:00:33;;;;;;;;;;;;;;;15.16;55.56;100348.91;1096156;47;20026;-82
2022/05/08 00:01:39;;;;;;;;;;;;;;;15.12;55.52;100345.72;1091518;47;19993;-81
2022/05/08 00:02:52;;;;;;;;;;;;;;;15.12;55.60;100343.03;1088490;54;19947;-82
2022/05/08 00:03:53;;;;;;;;;;;;;;;15.16;55.03;100343.53;1090351;47;19961;-83
2022/05/08 00:04:57;;;;;;;;;;;;;;;15.18;55.22;100343.38;1092242;47;19942;-82
2022/05/08 00:06:00;;;;;;;;;;;;;;;15.18;55.03;100338.81;1088563;54;19975;-81
2022/05/08 00:07:03;;;;;;;;;;;;;;;15.18;55.25;100341.50;1090477;47;20011;-81
2022/05/08 00:08:05;;;;;;;;;;;;;;;15.19;55.25;100347.75;1088417;54;19994;-81
2022/05/08 00:09:11;;;;;;;;;;;;;;;15.18;55.25;100346.06;1088563;54;19931;-82
2022/05/08 00:10:15;;;;;;;;;;;;;;;15.16;55.57;100343.53;1088540;54;19962;-81
2022/05/08 00:11:21;;;;;;;;;;;;;;;15.10;55.71;100345.06;1091813;47;19922;-82
2022/05/08 00:12:25;;;;;;;;;;;;;;;15.06;56.30;100343.69;1088608;54;19923;-82
2022/05/08 00:13:41;;;;;;;;;;;;;;;15.05;56.15;100341.19;1091488;47;19950;-81
2022/05/08 03:44:13;;;;;;;;;;;;;;;12.08;66.53;100388.13;1087405;54;19934;-81
2022/05/08 03:49:36;;;;;;;;;;;;;;;12.03;66.75;100383.22;1093197;47;19954;-80
2022/05/08 04:46:48;;;;;;;;;;;;;;;11.91;66.32;100409.28;1087895;54;20895;-77
2022/05/08 04:47:49;;;;;;;;;;;;;;;11.92;66.22;100418.19;1088407;54;20547;-77
2022/05/08 04:48:53;;;;;;;;;;;;;;;11.93;66.04;100417.19;1087883;54;19942;-76
2022/05/08 04:49:54;;;;;;;;;;;;;;;11.95;66.39;100418.72;1087936;54;19942;-77
2022/05/08 04:50:58;;;;;;;;;;;;;;;11.95;66.07;100421.41;1088458;54;19954;-78
2022/05/08 04:51:59;;;;;;;;;;;;;;;11.97;65.96;100418.56;1088519;54;19950;-79
2022/05/08 04:53:03;;;;;;;;;;;;;;;11.98;65.82;100418.47;1088512;54;19995;-78
2022/05/08 04:54:04;;;;;;;;;;;;;;;11.95;66.35;100423.25;1088522;54;19962;-77
2022/05/08 04:55:08;;;;;;;;;;;;;;;11.88;66.68;100409.59;1088510;54;19949;-79
2022/05/08 04:56:09;;;;;;;;;;;;;;;11.82;67.23;100419.03;1088572;54;19927;-79
2022/05/08 04:57:13;;;;;;;;;;;;;;;11.79;67.54;100413.13;1088479;54;19943;-78
2022/05/08 04:58:14;;;;;;;;;;;;;;;11.71;68.33;100416.53;1088487;54;19955;-80
2022/05/08 04:59:18;;;;;;;;;;;;;;;11.55;69.23;100422.44;1088632;54;19954;-78
2022/05/08 05:03:56;;;;;;;;;;;;;;;11.11;71.15;100424.69;1087714;54;19951;-81
2022/05/08 05:05:01;;;;;;;;;;;;;;;11.09;71.30;100424.84;1088102;54;19950;-78
2022/05/08 05:23:48;;;;;;;;;;;;;;;10.92;72.56;100445.91;1087593;54;19941;-81
2022/05/08 05:24:50;;;;;;;;;;;;;;;10.93;72.55;100449.47;1087925;54;19986;-79
2022/05/08 05:25:55;;;;;;;;;;;;;;;10.96;72.25;100451.84;1088466;54;19939;-79
2022/05/08 05:26:57;;;;;;;;;;;;;;;11.06;71.96;100451.88;1088409;54;19939;-81
2022/05/08 05:28:01;;;;;;;;;;;;;;;11.13;71.85;100442.31;1088478;54;20449;-81
2022/05/08 05:29:05;;;;;;;;;;;;;;;11.15;72.03;100448.38;1088439;54;19930;-81
2022/05/08 05:30:09;;;;;;;;;;;;;;;11.15;71.84;100450.19;1087953;54;20421;-80
2022/05/08 05:31:15;;;;;;;;;;;;;;;11.19;71.58;100449.75;1087402;54;19958;-81
2022/05/08 05:32:18;;;;;;;;;;;;;;;11.15;72.02;100458.22;1088684;39;20329;-82
2022/05/08 05:33:22;;;;;;;;;;;;;;;11.12;71.86;100451.31;1087891;54;19965;-81
2022/05/08 05:34:24;;;;;;;;;;;;;;;11.08;72.01;100456.09;1087919;54;19962;-81
2022/05/08 05:35:28;;;;;;;;;;;;;;;11.06;72.34;100450.03;1087671;54;19939;-80
2022/05/08 05:36:33;;;;;;;;;;;;;;;11.11;71.90;100452.28;1087739;54;19937;-80
2022/05/08 05:37:37;;;;;;;;;;;;;;;11.22;71.56;100456.69;1087048;54;19958;-81
2022/05/08 05:38:39;;;;;;;;;;;;;;;11.16;71.88;100449.19;1087056;54;19950;-80
2022/05/08 05:39:45;;;;;;;;;;;;;;;11.14;71.56;100448.50;1087580;54;19943;-82
2022/05/08 05:40:47;;;;;;;;;;;;;;;11.18;71.50;100453.44;1086786;54;20500;-80
2022/05/08 05:41:52;;;;;;;;;;;;;;;11.25;71.28;100451.03;1086137;54;19943;-80
2022/05/08 05:42:57;;;;;;;;;;;;;;;11.27;71.17;100453.59;1086173;54;19958;-80
2022/05/08 05:43:58;;;;;;;;;;;;;;;11.29;70.94;100448.97;1086081;54;19970;-80
2022/05/08 05:45:03;;;;;;;;;;;;;;;11.37;70.96;100449.94;1086625;54;19945;-80
2022/05/08 05:48:39;;;;;;;;;;;;;;;11.54;70.53;100455.56;1087276;54;19939;-78
2022/05/08 05:51:15;;;;;;;;;;;;;;;11.74;69.87;100456.41;1088277;54;19942;-77
2022/05/08 05:52:16;;;;;;;;;;;;;;;11.88;69.22;100451.59;1088127;54;19945;-78
2022/05/08 05:53:21;;;;;;;;;;;;;;;11.93;69.29;100450.19;1088241;54;19990;-78
2022/05/08 05:54:22;;;;;;;;;;;;;;;11.93;69.16;100455.53;1088221;54;19931;-77
2022/05/08 06:18:56;;;;;;;;;;;;;;;13.03;65.88;100460.38;1086109;54;20599;-79
2022/05/08 06:20:00;;;;;;;;;;;;;;;13.07;65.86;100462.63;1087672;54;20430;-78
2022/05/08 06:21:09;;;;;;;;;;;;;;;13.07;65.76;100459.06;1087941;54;19935;-78
2022/05/08 06:22:13;;;;;;;;;;;;;;;13.12;65.58;100454.09;1087987;54;19934;-78
2022/05/08 06:23:25;;;;;;;;;;;;;;;13.18;65.56;100461.53;1087804;54;20436;-78
2022/05/08 06:24:29;;;;;;;;;;;;;;;13.25;65.38;100451.88;1087568;54;19934;-78
2022/05/08 06:41:07;;;;;;;;;;;;;;;13.89;64.02;100465.22;1087401;54;21044;-81
2022/05/08 06:42:11;;;;;;;;;;;;;;;13.97;63.54;100460.94;1088516;54;19996;-80
2022/05/08 06:43:12;;;;;;;;;;;;;;;14.02;63.55;100462.16;1091140;46;19950;-79
2022/05/08 07:46:16;;;;;;;;;;;;;;;16.98;55.67;100472.63;1079202;54;19939;-78
2022/05/08 07:47:17;;;;;;;;;;;;;;;16.92;55.95;100474.13;1087522;54;19958;-79
2022/05/08 07:50:02;;;;;;;;;;;;;;;17.06;55.51;100479.84;1087983;54;19946;-79
2022/05/08 07:51:13;;;;;;;;;;;;;;;16.98;55.91;100478.88;1088000;54;19958;-79
2022/05/08 07:52:14;;;;;;;;;;;;;;;16.97;56.49;100477.19;1087627;54;19958;-79
2022/05/08 07:53:26;;;;;;;;;;;;;;;16.82;56.92;100477.06;1087327;54;19943;-78
2022/05/08 08:33:15;;;;;;;;;;;;;;;18.79;52.15;100489.22;1086042;47;19997;-79
2022/05/08 08:34:17;;;;;;;;;;;;;;;18.75;52.60;100492.50;1087313;54;20008;-79
2022/05/08 08:35:21;;;;;;;;;;;;;;;18.70;52.83;100493.06;1087356;54;19935;-80
2022/05/08 08:36:25;;;;;;;;;;;;;;;18.63;52.90;100486.69;1087343;54;19939;-80
2022/05/08 08:37:32;;;;;;;;;;;;;;;18.64;52.24;100499.19;1087224;54;20444;-79
2022/05/08 08:38:36;;;;;;;;;;;;;;;18.71;52.36;100492.84;1087088;54;19942;-80
2022/05/08 08:39:46;;;;;;;;;;;;;;;18.69;52.18;100488.66;1086983;54;19947;-78
2022/05/08 08:40:51;;;;;;;;;;;;;;;18.79;52.21;100489.22;1087092;54;19938;-78
2022/05/08 08:42:03;;;;;;;;;;;;;;;18.76;52.16;100488.72;1087230;54;20432;-78
2022/05/08 08:43:09;;;;;;;;;;;;;;;18.80;52.53;100492.75;1086630;54;19969;-78
2022/05/08 08:48:03;;;;;;;;;;;;;;;19.10;50.94;100490.84;1087881;54;19949;-79
2022/05/08 08:49:22;;;;;;;;;;;;;;;19.30;50.77;100488.41;1087351;54;20030;-78
2022/05/08 08:50:24;;;;;;;;;;;;;;;19.43;50.19;100487.69;1087987;54;19959;-78
2022/05/08 08:51:28;;;;;;;;;;;;;;;19.52;49.83;100482.97;1087493;54;19942;-79
2022/05/08 08:52:30;;;;;;;;;;;;;;;19.53;50.14;100483.81;1087317;54;19963;-80
2022/05/08 08:53:48;;;;;;;;;;;;;;;19.45;49.58;100485.63;1087475;54;19946;-79
2022/05/08 08:54:50;;;;;;;;;;;;;;;19.37;49.43;100487.63;1086756;54;20493;-80
2022/05/08 08:55:54;;;;;;;;;;;;;;;19.17;49.83;100477.41;1087310;54;19962;-78
2022/05/08 08:56:57;;;;;;;;;;;;;;;19.21;50.01;100483.28;1086514;54;20049;-78
2022/05/08 08:59:32;;;;;;;;;;;;;;;19.81;49.13;100483.88;1087212;54;19930;-79
2022/05/08 09:00:36;;;;;;;;;;;;;;;19.87;48.16;100482.28;1087648;54;20006;-79
2022/05/08 09:02:01;;;;;;;;;;;;;;;19.83;48.50;100480.97;1088256;54;19942;-81
2022/05/08 09:03:03;;;;;;;;;;;;;;;19.88;48.67;100484.81;1088565;54;20449;-79
2022/05/08 09:04:23;;;;;;;;;;;;;;;20.01;48.49;100485.94;1088208;54;19990;-80
2022/05/08 09:05:27;;;;;;;;;;;;;;;20.14;48.42;100488.78;1090248;39;20337;-81
2022/05/08 09:07:56;;;;;;;;;;;;;;;20.29;47.90;100490.53;1088168;39;20328;-79
2022/05/08 09:09:20;;;;;;;;;;;;;;;20.39;47.60;100497.31;1087048;54;19939;-79
2022/05/08 09:10:26;;;;;;;;;;;;;;;20.35;47.22;100490.59;1085910;54;19942;-80
2022/05/08 09:11:34;;;;;;;;;;;;;;;20.35;47.26;100493.31;1086422;54;19965;-79
2022/05/08 09:12:38;;;;;;;;;;;;;;;20.48;47.72;100489.00;1087834;54;19946;-79
2022/05/08 09:13:53;;;;;;;;;;;;;;;20.56;46.76;100494.28;1088203;54;20019;-81
2022/05/08 09:14:54;;;;;;;;;;;;;;;20.66;46.41;100489.31;1087026;54;20030;-78
2022/05/08 09:16:09;;;;;;;;;;;;;;;20.81;46.44;100488.38;1087510;54;19939;-78
2022/05/08 09:17:15;;;;;;;;;;;;;;;20.68;45.43;100484.53;1088115;54;19939;-78
2022/05/08 09:18:19;;;;;;;;;;;;;;;20.82;45.94;100481.91;1087888;54;19995;-79
2022/05/08 09:19:37;;;;;;;;;;;;;;;21.03;45.86;100481.78;1088225;54;19935;-79
2022/05/08 09:20:46;;;;;;;;;;;;;;;21.16;44.95;100474.72;1089934;39;20466;-80
2022/05/08 09:21:57;;;;;;;;;;;;;;;21.15;44.40;100478.50;1087281;39;19962;-77
2022/05/08 09:23:02;;;;;;;;;;;;;;;21.02;44.81;100477.38;1087326;54;19946;-77
2022/05/08 09:24:19;;;;;;;;;;;;;;;21.03;44.81;100479.06;1087592;54;19947;-78
2022/05/08 09:25:20;;;;;;;;;;;;;;;20.99;44.33;100480.50;1086279;54;19951;-78
2022/05/08 09:26:28;;;;;;;;;;;;;;;20.98;44.14;100478.00;1086324;54;19966;-80
2022/05/08 09:27:29;;;;;;;;;;;;;;;20.86;44.69;100475.03;1086650;54;19958;-78
2022/05/08 09:28:43;;;;;;;;;;;;;;;20.97;44.70;100477.16;1087148;46;20464;-78
2022/05/08 09:29:45;;;;;;;;;;;;;;;21.19;44.07;100475.16;1087148;54;19962;-79
2022/05/08 09:31:00;;;;;;;;;;;;;;;21.26;44.19;100469.72;1086477;54;19934;-78
2022/05/08 09:32:04;;;;;;;;;;;;;;;21.28;43.98;100473.06;1086156;54;19939;-79
2022/05/08 09:33:18;;;;;;;;;;;;;;;21.41;43.80;100474.16;1086073;54;19974;-79
2022/05/08 09:34:22;;;;;;;;;;;;;;;21.72;43.58;100475.50;1086763;54;19939;-79
2022/05/08 09:35:45;;;;;;;;;;;;;;;21.59;42.96;100468.97;1087979;54;19946;-81
2022/05/08 09:37:06;;;;;;;;;;;;;;;21.42;42.94;100467.69;1087347;54;20484;-79
2022/05/08 09:39:41;;;;;;;;;;;;;;;21.58;42.82;100461.88;1088254;54;19983;-79
2022/05/08 09:40:57;;;;;;;;;;;;;;;21.68;42.82;100461.44;1091057;46;19983;-78
2022/05/08 09:42:01;;;;;;;;;;;;;;;21.84;41.77;100470.25;1086789;54;19954;-77
2022/05/08 09:43:04;;;;;;;;;;;;;;;21.85;41.76;100455.63;1087881;39;20427;-78
2022/05/08 09:44:16;;;;;;;;;;;;;;;21.94;42.14;100457.06;1087043;54;19951;-80
2022/05/08 10:02:54;;;;;;;;;;;;;;;22.17;38.48;100448.47;1085835;39;20353;-81
2022/05/08 10:03:58;;;;;;;;;;;;;;;22.05;39.09;100455.59;1085965;54;19962;-79
2022/05/08 10:05:00;;;;;;;;;;;;;;;21.88;39.74;100453.31;1086053;54;19963;-80
2022/05/08 10:06:05;;;;;;;;;;;;;;;21.88;39.99;100455.16;1086419;54;19939;-79
2022/05/08 10:07:06;;;;;;;;;;;;;;;21.82;40.60;100448.72;1086296;54;19939;-79
2022/05/08 10:08:10;;;;;;;;;;;;;;;21.73;40.22;100464.41;1086634;54;19950;-78
2022/05/08 10:14:27;;;;;;;;;;;;;;;21.79;39.86;100449.94;1085579;54;20549;-80
2022/05/08 10:15:35;;;;;;;;;;;;;;;21.74;39.99;100443.44;1086351;54;19947;-78
2022/05/08 10:16:52;;;;;;;;;;;;;;;21.73;40.07;100441.78;1086678;54;19957;-79
2022/05/08 10:18:21;;;;;;;;;;;;;;;21.73;39.88;100452.66;1085665;54;20460;-79
2022/05/08 10:19:55;;;;;;;;;;;;;;;21.76;40.03;100442.22;1085355;54;20444;-80
2022/05/08 10:21:00;;;;;;;;;;;;;;;21.91;39.69;100443.88;1086417;54;19946;-79
2022/05/08 10:22:10;;;;;;;;;;;;;;;21.88;39.52;100449.72;1086035;54;20041;-79
2022/05/08 10:23:35;;;;;;;;;;;;;;;22.13;39.33;100448.06;1087721;39;20001;-81
2022/05/08 10:24:38;;;;;;;;;;;;;;;22.29;39.53;100438.56;1086367;54;19946;-81
2022/05/08 10:25:42;;;;;;;;;;;;;;;22.47;39.29;100441.72;1086410;54;19946;-79
2022/05/08 10:27:03;;;;;;;;;;;;;;;22.33;39.27;100446.34;1086295;54;19946;-81
2022/05/08 10:28:08;;;;;;;;;;;;;;;22.22;39.54;100445.94;1086276;54;19965;-80
2022/05/08 10:29:13;;;;;;;;;;;;;;;22.06;39.51;100439.03;1085995;54;19939;-80
2022/05/08 10:30:27;;;;;;;;;;;;;;;22.09;39.88;100440.53;1086072;54;19950;-79
2022/05/08 10:31:44;;;;;;;;;;;;;;;22.18;39.72;100441.13;1085501;54;19946;-80
2022/05/08 10:32:51;;;;;;;;;;;;;;;22.38;39.79;100432.94;1086305;54;20440;-81
2022/05/08 10:34:10;;;;;;;;;;;;;;;22.29;39.42;100438.56;1086461;54;19946;-80
2022/05/08 10:35:12;;;;;;;;;;;;;;;22.35;38.86;100434.16;1086058;54;19946;-80
2022/05/08 10:36:16;;;;;;;;;;;;;;;22.17;38.16;100436.72;1085616;54;19939;-80
2022/05/08 10:37:35;;;;;;;;;;;;;;;22.22;39.20;100435.03;1086216;54;20038;-81
2022/05/08 10:38:45;;;;;;;;;;;;;;;22.16;38.92;100435.03;1086836;54;19951;-81
2022/05/08 10:39:47;;;;;;;;;;;;;;;22.02;38.09;100436.94;1086300;54;19947;-79
2022/05/08 10:40:51;;;;;;;;;;;;;;;21.96;38.44;100428.59;1086046;54;20433;-81
2022/05/08 10:41:53;;;;;;;;;;;;;;;21.80;37.53;100429.03;1086296;54;19998;-81
2022/05/08 10:43:00;;;;;;;;;;;;;;;21.75;37.57;100434.25;1086438;54;19946;-79
2022/05/08 10:44:19;;;;;;;;;;;;;;;21.82;37.58;100424.22;1086153;54;19942;-82
2022/05/08 10:45:37;;;;;;;;;;;;;;;21.72;37.60;100434.69;1086897;39;20376;-79
2022/05/08 10:50:06;;;;;;;;;;;;;;;;;;;;;
2022/05/08 10:51:29;;;;;;;;;;;;;;;22.03;36.49;100425.00;1088323;54;19947;-80
2022/05/08 10:52:50;;;;;;;;;;;;;;;22.14;36.93;100427.09;1088361;54;19950;-81
2022/05/08 10:54:18;;;;;;;;;;;;;;;22.21;36.57;100425.19;1088320;54;19942;-80
2022/05/08 10:55:19;;;;;;;;;;;;;;;22.29;36.70;100424.97;1088006;54;20633;-78
2022/05/08 10:56:55;;;;;;;;;;;;;;;22.42;36.76;100423.28;1088243;54;19942;-78
2022/05/08 10:58:42;;;;;;;;;;;;;;;22.44;36.14;100421.19;1087919;54;20011;-79
2022/05/08 11:00:11;;;;;;;;;;;;;;;22.42;35.66;100421.44;1088832;46;19950;-78
2022/05/08 11:01:27;;;;;;;;;;;;;;;22.34;35.28;100415.31;1087507;47;19951;-79
2022/05/08 11:03:24;;;;;;;;;;;;;;;;;;;;;
2022/05/08 11:07:27;;;;;;;;;;;;;;;22.39;35.26;100408.19;1087522;54;19939;-78
2022/05/08 11:08:34;;;;;;;;;;;;;;;22.46;34.07;100419.09;1087564;54;20002;-78
2022/05/08 11:09:55;;;;;;;;;;;;;;;22.38;33.87;100406.53;1088500;46;19968;-79
2022/05/08 11:11:02;;;;;;;;;;;;;;;22.62;34.46;100403.31;1087733;54;19967;-79
2022/05/08 11:13:41;;;;;;;;;;;;;;;22.65;34.61;100403.72;1087680;54;19946;-78
2022/05/08 11:16:33;;;;;;;;;;;;;;;22.83;34.17;100411.19;1088071;54;19931;-80
2022/05/08 11:17:41;;;;;;;;;;;;;;;22.83;32.68;100410.34;1088140;54;19942;-79
2022/05/08 11:18:42;;;;;;;;;;;;;;;22.88;32.67;100411.38;1088219;54;19923;-80
2022/05/08 11:19:52;;;;;;;;;;;;;;;22.99;33.07;100409.00;1088106;54;19927;-78
2022/05/08 11:20:57;;;;;;;;;;;;;;;23.03;32.18;100402.09;1088031;54;19974;-79
2022/05/08 11:22:08;;;;;;;;;;;;;;;23.05;32.72;100408.13;1088648;46;19942;-79
2022/05/08 11:23:10;;;;;;;;;;;;;;;23.01;32.98;100413.19;1088066;54;20525;-80
2022/05/08 11:24:26;;;;;;;;;;;;;;;22.98;32.87;100410.06;1088302;54;19939;-79
2022/05/08 11:25:28;;;;;;;;;;;;;;;22.98;33.11;100412.78;1088324;54;19939;-80
2022/05/08 11:26:33;;;;;;;;;;;;;;;22.83;32.52;100413.06;1090224;46;19990;-79
2022/05/08 11:27:34;;;;;;;;;;;;;;;22.91;33.32;100410.09;1087928;54;20476;-79
2022/05/08 11:28:39;;;;;;;;;;;;;;;22.86;32.29;100412.66;1087917;54;21302;-79
2022/05/08 11:29:46;;;;;;;;;;;;;;;22.81;31.69;100412.47;1087502;54;19961;-80
2022/05/08 11:30:50;;;;;;;;;;;;;;;22.82;31.59;100416.84;1087795;54;19957;-79
2022/05/08 11:37:04;;;;;;;;;;;;;;;22.31;31.40;100426.63;1088287;54;20227;-80
2022/05/08 11:38:06;;;;;;;;;;;;;;;22.27;31.91;100415.34;1089543;46;19986;-79
2022/05/08 11:39:12;;;;;;;;;;;;;;;22.16;32.25;100421.44;1088379;54;20094;-79
2022/05/08 11:40:16;;;;;;;;;;;;;;;22.13;31.96;100420.84;1089644;39;20392;-79
2022/05/08 11:41:21;;;;;;;;;;;;;;;22.18;31.11;100422.91;1091081;46;19991;-79
2022/05/08 11:42:26;;;;;;;;;;;;;;;22.20;30.62;100417.25;1089003;47;19979;-80
2022/05/08 11:43:40;;;;;;;;;;;;;;;22.27;30.35;100415.34;1088042;47;19942;-79
2022/05/08 11:44:44;;;;;;;;;;;;;;;22.38;30.45;100422.03;1087891;54;19954;-79
2022/05/08 11:46:00;;;;;;;;;;;;;;;22.30;30.47;100420.38;1087853;54;19950;-78
2022/05/08 11:47:13;;;;;;;;;;;;;;;22.38;30.78;100411.16;1088266;39;20411;-79
2022/05/08 11:48:15;;;;;;;;;;;;;;;22.33;31.00;100410.94;1087907;54;20002;-80
2022/05/08 11:49:19;;;;;;;;;;;;;;;22.22;31.41;100410.53;1089012;47;19943;-79
2022/05/08 11:50:21;;;;;;;;;;;;;;;22.11;31.98;100413.91;1090486;39;20411;-80
2022/05/08 11:51:24;;;;;;;;;;;;;;;22.03;31.93;100408.69;1088131;54;19950;-78
2022/05/08 11:52:26;;;;;;;;;;;;;;;22.06;31.98;100417.25;1088174;54;19966;-80
2022/05/08 11:53:29;;;;;;;;;;;;;;;22.07;31.51;100409.94;1087864;54;19994;-79
2022/05/08 11:54:35;;;;;;;;;;;;;;;22.15;31.04;100415.16;1088002;54;19954;-79
2022/05/08 11:55:45;;;;;;;;;;;;;;;22.14;30.21;100405.31;1088043;54;19943;-79
2022/05/08 11:56:51;;;;;;;;;;;;;;;22.28;30.54;100406.13;1088627;47;19962;-80
2022/05/08 11:57:52;;;;;;;;;;;;;;;22.22;30.51;100407.81;1088007;54;19942;-80
2022/05/08 11:58:56;;;;;;;;;;;;;;;22.17;30.54;100413.06;1088069;54;19957;-79
2022/05/08 12:00:07;;;;;;;;;;;;;;;22.19;30.48;100402.81;1088162;47;19982;-78
2022/05/08 12:01:19;;;;;;;;;;;;;;;22.31;30.42;100410.31;1088326;47;19938;-78
2022/05/08 12:02:40;;;;;;;;;;;;;;;22.21;30.82;100414.31;1087934;54;19950;-78
2022/05/08 12:03:41;;;;;;;;;;;;;;;22.19;30.91;100408.25;1087620;54;19943;-78
2022/05/08 12:04:54;;;;;;;;;;;;;;;22.27;31.33;100404.44;1087859;54;19950;-79
2022/05/08 12:06:11;;;;;;;;;;;;;;;22.28;30.99;100409.69;1087791;54;19939;-78
2022/05/08 12:07:16;;;;;;;;;;;;;;;22.33;31.36;100400.03;1087801;54;19951;-79
2022/05/08 12:08:21;;;;;;;;;;;;;;;22.36;31.38;100400.44;1088909;47;19946;-79
2022/05/08 12:09:25;;;;;;;;;;;;;;;22.49;31.05;100396.03;1088269;54;19973;-79
2022/05/08 12:10:35;;;;;;;;;;;;;;;22.54;31.19;100398.94;1088117;54;19938;-79
2022/05/08 12:11:42;;;;;;;;;;;;;;;22.41;30.88;100388.94;1088597;47;19938;-79
2022/05/08 12:12:46;;;;;;;;;;;;;;;22.44;30.93;100388.53;1088485;54;19938;-79
2022/05/08 12:14:00;;;;;;;;;;;;;;;22.56;30.92;100392.25;1088553;54;19950;-78
2022/05/08 12:15:18;;;;;;;;;;;;;;;22.65;31.01;100394.72;1090311;46;19954;-79
2022/05/08 12:16:19;;;;;;;;;;;;;;;22.80;31.14;100392.53;1088478;54;19938;-78
2022/05/08 12:17:23;;;;;;;;;;;;;;;22.87;30.89;100393.34;1090007;46;19986;-79
2022/05/08 12:18:25;;;;;;;;;;;;;;;22.96;30.97;100388.50;1088293;54;19942;-78
2022/05/08 12:19:29;;;;;;;;;;;;;;;23.01;30.94;100385.94;1088483;54;19942;-79
2022/05/08 12:20:36;;;;;;;;;;;;;;;23.00;30.67;100386.16;1089005;46;19958;-79
2022/05/08 12:21:38;;;;;;;;;;;;;;;22.92;30.94;100394.59;1088292;54;19934;-78
2022/05/08 12:22:42;;;;;;;;;;;;;;;22.80;29.81;100392.53;1089120;46;19951;-78
2022/05/08 12:23:46;;;;;;;;;;;;;;;22.68;30.47;100383.38;1088754;46;20006;-80
2022/05/08 12:24:50;;;;;;;;;;;;;;;22.59;30.46;100389.06;1090225;46;19939;-79
2022/05/08 12:25:52;;;;;;;;;;;;;;;22.62;31.01;100389.69;1088478;54;19946;-80
2022/05/08 12:26:58;;;;;;;;;;;;;;;22.51;30.45;100386.59;1091205;46;19949;-78
2022/05/08 12:28:02;;;;;;;;;;;;;;;22.61;30.49;100383.44;1088169;54;19943;-79
2022/05/08 12:29:05;;;;;;;;;;;;;;;22.73;30.52;100381.69;1088009;54;19943;-79
2022/05/08 12:30:10;;;;;;;;;;;;;;;22.83;29.95;100380.38;1088465;54;19977;-79
2022/05/08 12:31:11;;;;;;;;;;;;;;;22.83;29.81;100392.13;1088446;54;19966;-79
2022/05/08 12:32:15;;;;;;;;;;;;;;;22.73;29.67;100380.84;1088436;54;19951;-79
2022/05/08 12:33:19;;;;;;;;;;;;;;;22.75;29.71;100390.47;1090185;46;19946;-80
2022/05/08 12:34:20;;;;;;;;;;;;;;;22.69;29.96;100382.31;1089961;46;19938;-78
2022/05/08 12:35:26;;;;;;;;;;;;;;;22.67;29.80;100376.28;1090826;46;19935;-79
2022/05/08 12:36:28;;;;;;;;;;;;;;;22.65;30.17;100392.81;1088589;54;19950;-79
2022/05/08 12:37:31;;;;;;;;;;;;;;;22.65;30.10;100383.84;1088597;54;19952;-80
2022/05/08 12:38:32;;;;;;;;;;;;;;;22.78;30.36;100386.47;1088675;46;19974;-79
2022/05/08 12:39:36;;;;;;;;;;;;;;;22.83;30.69;100378.50;1088334;54;19934;-78
2022/05/08 12:40:39;;;;;;;;;;;;;;;22.88;30.73;100381.38;1088538;54;19938;-79
2022/05/08 12:41:43;;;;;;;;;;;;;;;22.91;30.22;100377.38;1091925;39;20091;-79
2022/05/08 12:42:51;;;;;;;;;;;;;;;22.77;29.29;100386.69;1088273;54;19946;-80
2022/05/08 12:43:52;;;;;;;;;;;;;;;22.70;30.44;100382.13;1088143;54;19954;-80
2022/05/08 12:44:56;;;;;;;;;;;;;;;22.67;30.33;100381.72;1088122;54;19972;-79
2022/05/08 12:46:03;;;;;;;;;;;;;;;22.65;30.80;100378.38;1087963;54;19942;-78
2022/05/08 12:47:08;;;;;;;;;;;;;;;22.74;30.95;100377.06;1088349;54;19957;-78
2022/05/08 12:48:11;;;;;;;;;;;;;;;22.90;31.05;100381.19;1088367;54;20007;-79
2022/05/08 12:49:16;;;;;;;;;;;;;;;23.05;31.00;100383.59;1088524;54;20558;-79
2022/05/08 12:50:17;;;;;;;;;;;;;;;23.12;31.09;100378.97;1088504;54;19961;-80
2022/05/08 12:51:20;;;;;;;;;;;;;;;23.17;31.00;100376.41;1088415;54;19939;-79
2022/05/08 12:52:24;;;;;;;;;;;;;;;23.24;30.68;100375.56;1090073;46;19953;-78
2022/05/08 12:53:25;;;;;;;;;;;;;;;23.33;30.46;100374.22;1088297;54;19938;-79
2022/05/08 12:54:29;;;;;;;;;;;;;;;23.26;30.42;100368.81;1088615;46;19929;-79
2022/05/08 12:55:31;;;;;;;;;;;;;;;23.25;30.65;100371.75;1088308;54;19939;-79
2022/05/08 12:56:35;;;;;;;;;;;;;;;23.27;30.43;100375.09;1089791;46;19942;-79
2022/05/08 13:00:22;;;;;;;;;;;;;;;23.34;29.59;100375.88;1088199;54;19955;-80
2022/05/08 13:01:23;;;;;;;;;;;;;;;23.34;29.19;100374.00;1090668;46;19950;-78
2022/05/08 13:02:27;;;;;;;;;;;;;;;23.33;29.13;100368.78;1088148;54;19938;-79
2022/05/08 13:03:28;;;;;;;;;;;;;;;23.27;29.62;100367.78;1089480;46;19949;-79
2022/05/08 13:04:33;;;;;;;;;;;;;;;23.29;29.48;100373.81;1088479;54;19949;-81
2022/05/08 13:05:36;;;;;;;;;;;;;;;23.20;29.60;100365.09;1088335;54;19938;-80
2022/05/08 13:06:40;;;;;;;;;;;;;;;23.20;29.71;100369.69;1088558;54;19927;-79
2022/05/08 13:07:44;;;;;;;;;;;;;;;23.10;29.67;100370.16;1088471;54;19981;-79
2022/05/08 13:08:45;;;;;;;;;;;;;;;23.13;29.86;100363.41;1088389;54;19938;-78
2022/05/08 13:09:49;;;;;;;;;;;;;;;23.18;30.38;100356.28;1090717;46;19927;-79
2022/05/08 13:10:50;;;;;;;;;;;;;;;23.28;30.31;100361.25;1088524;54;19950;-77
2022/05/08 13:11:54;;;;;;;;;;;;;;;23.41;30.16;100349.41;1088581;54;19939;-79
2022/05/08 13:12:55;;;;;;;;;;;;;;;23.44;30.08;100359.03;1088364;54;19962;-79
2022/05/08 13:13:59;;;;;;;;;;;;;;;23.36;30.30;100358.25;1088462;54;19950;-79
2022/05/08 13:15:06;;;;;;;;;;;;;;;23.35;30.39;100358.47;1088875;46;19957;-80
2022/05/08 13:16:11;;;;;;;;;;;;;;;23.23;29.88;100357.53;1088286;54;19946;-79
2022/05/08 13:17:14;;;;;;;;;;;;;;;23.13;30.29;100358.81;1088189;54;19943;-78
2022/05/08 13:18:16;;;;;;;;;;;;;;;23.13;30.34;100363.41;1088103;54;19938;-79
2022/05/08 13:19:19;;;;;;;;;;;;;;;23.17;30.16;100360.03;1090370;46;19931;-79
2022/05/08 13:20:21;;;;;;;;;;;;;;;23.21;30.15;100353.13;1088314;54;19939;-79
2022/05/08 13:21:25;;;;;;;;;;;;;;;23.20;30.24;100361.50;1088381;54;19946;-78
2022/05/08 13:22:26;;;;;;;;;;;;;;;23.18;29.97;100348.09;1088349;54;19939;-79
2022/05/08 13:23:30;;;;;;;;;;;;;;;23.24;30.39;100354.56;1088086;54;19926;-79
2022/05/08 13:24:34;;;;;;;;;;;;;;;23.16;30.00;100360.25;1094561;39;20206;-79
2022/05/08 13:25:35;;;;;;;;;;;;;;;23.25;30.30;100350.78;1089716;46;19965;-80
2022/05/08 13:26:38;;;;;;;;;;;;;;;23.29;30.35;100340.25;1089020;46;19923;-80
2022/05/08 13:27:39;;;;;;;;;;;;;;;23.26;30.42;100340.69;1088485;54;19954;-80
2022/05/08 13:28:44;;;;;;;;;;;;;;;23.20;30.47;100348.72;1088313;54;19938;-79
2022/05/08 13:29:47;;;;;;;;;;;;;;;23.03;30.38;100347.56;1089011;46;19961;-79
2022/05/08 13:30:51;;;;;;;;;;;;;;;23.00;30.25;100353.44;1088512;54;20767;-80
2022/05/08 13:31:55;;;;;;;;;;;;;;;22.99;30.46;100344.44;1088163;54;19926;-79
2022/05/08 13:32:56;;;;;;;;;;;;;;;23.16;30.22;100344.72;1088250;54;19950;-79
2022/05/08 13:34:00;;;;;;;;;;;;;;;23.21;30.01;100347.66;1088276;54;19953;-79
2022/05/08 13:35:03;;;;;;;;;;;;;;;23.21;30.47;100346.81;1088437;54;19950;-80
2022/05/08 13:36:05;;;;;;;;;;;;;;;23.14;29.75;100349.59;1088118;54;19942;-79
2022/05/08 13:37:09;;;;;;;;;;;;;;;23.06;29.97;100341.66;1088324;54;19935;-79
2022/05/08 13:38:10;;;;;;;;;;;;;;;23.03;30.01;100353.84;1088393;54;19973;-78
2022/05/08 13:39:14;;;;;;;;;;;;;;;23.15;30.26;100358.59;1089754;46;19998;-79
2022/05/08 13:40:15;;;;;;;;;;;;;;;23.26;30.03;100351.59;1088703;46;20002;-79
2022/05/08 13:41:19;;;;;;;;;;;;;;;23.15;30.01;100344.97;1088193;54;19943;-78
2022/05/08 13:42:25;;;;;;;;;;;;;;;23.24;30.25;100348.28;1088181;54;19938;-79
2022/05/08 13:43:26;;;;;;;;;;;;;;;23.26;29.92;100337.97;1090137;46;19943;-79
2022/05/08 13:44:31;;;;;;;;;;;;;;;23.29;29.87;100346.53;1091464;46;19958;-78
2022/05/08 13:45:32;;;;;;;;;;;;;;;23.35;30.04;100350.28;1088325;54;19939;-79
2022/05/08 13:46:38;;;;;;;;;;;;;;;23.34;29.84;100343.16;1088292;54;19949;-79
2022/05/08 13:47:39;;;;;;;;;;;;;;;23.40;30.17;100347.75;1088323;54;19951;-79